Time;durP1;ratioP1;P1;durP2;ratioP2;P2;SDS_P1;SDS_P2;PMS_P1;PMS_P2;Temp;Humidity;BMP_temperature;BMP_pressure;BME280_temperature;BME280_humidity;BME280_pressure;Samples;Min_cycle;Max_cycle;Signal;HPM_P1;HPM_P2
2022/01/28 00:04:47;;;;;;;;;71.00;53.75;;;;;7.59;90.09;102916.44;5075451;27;45371;-77
2022/01/28 00:07:13;;;;;;;;;65.75;50.50;;;;;7.46;89.72;102885.66;5096076;27;45509;-77
2022/01/28 00:09:38;;;;;;;;;62.25;47.75;;;;;7.61;89.49;102911.25;5095515;27;48315;-77
2022/01/28 00:12:04;;;;;;;;;66.50;51.25;;;;;7.63;89.43;102909.63;5095831;27;45311;-77
2022/01/28 00:14:41;;;;;;;;;66.00;50.25;;;;;7.67;89.17;102914.31;5097459;27;45452;-77
2022/01/28 00:38:33;;;;;;;;;64.00;47.00;;;;;7.38;90.10;102902.72;5096902;27;45478;-77
2022/01/28 00:40:58;;;;;;;;;63.50;52.25;;;;;7.59;89.53;102947.22;5096715;27;45510;-77
2022/01/28 00:43:24;;;;;;;;;71.50;56.00;;;;;7.65;89.71;102958.19;5096823;27;45347;-77
2022/01/28 00:45:50;;;;;;;;;61.50;48.00;;;;;7.52;89.65;102940.63;5096616;27;45444;-77
2022/01/28 00:48:15;;;;;;;;;67.00;51.25;;;;;7.61;90.29;102967.66;5095114;27;45335;-77
2022/01/28 00:50:42;;;;;;;;;69.75;53.00;;;;;7.40;89.84;102924.88;5096739;27;46303;-77
2022/01/28 00:53:11;;;;;;;;;64.25;50.25;;;;;7.48;89.90;102931.59;5095212;27;45759;-78
2022/01/28 00:55:37;;;;;;;;;71.25;55.25;;;;;7.53;90.17;102946.00;5096720;27;45343;-77
2022/01/28 00:58:03;;;;;;;;;67.00;51.75;;;;;7.49;90.15;102943.06;5096445;27;45495;-77
2022/01/28 01:00:29;;;;;;;;;67.25;52.50;;;;;7.41;90.11;102924.03;5096359;27;45395;-77
2022/01/28 01:02:56;;;;;;;;;65.75;52.50;;;;;7.59;89.72;102949.88;5135524;27;45321;-77
2022/01/28 01:05:22;;;;;;;;;66.25;50.50;;;;;7.68;89.64;102966.34;5138317;27;45437;-78
2022/01/28 01:07:48;;;;;;;;;63.00;52.00;;;;;7.67;89.81;102953.94;5138221;27;45348;-77
2022/01/28 01:10:13;;;;;;;;;69.00;49.33;;;;;7.75;89.08;102951.78;5137522;27;47073;-77
2022/01/28 01:12:43;;;;;;;;;68.33;52.00;;;;;7.93;89.08;102976.78;5137879;27;45403;-77
2022/01/28 01:15:11;;;;;;;;;64.50;52.00;;;;;7.86;88.21;102961.34;5137252;27;45705;-77
2022/01/28 01:17:42;;;;;;;;;63.67;52.00;;;;;7.89;88.16;102953.63;5119151;27;45381;-77
2022/01/28 01:20:31;;;;;;;;;63.50;50.25;;;;;8.06;88.29;102984.72;5137448;27;45546;-77
2022/01/28 01:23:12;;;;;;;;;68.25;53.50;;;;;8.06;87.41;102975.88;5137339;27;45467;-77
2022/01/28 01:25:51;;;;;;;;;59.67;47.00;;;;;7.98;87.42;102953.31;5137678;27;45303;-77
2022/01/28 01:28:20;;;;;;;;;60.33;46.67;;;;;8.00;87.27;102978.09;5118742;27;45435;-77
2022/01/28 01:30:46;;;;;;;;;64.50;51.00;;;;;8.01;87.31;102970.25;5137103;27;46276;-77
2022/01/28 01:33:12;;;;;;;;;64.67;49.33;;;;;8.18;87.05;102994.25;5137079;27;45383;-77
2022/01/28 01:35:39;;;;;;;;;38.33;28.33;;;;;8.16;86.79;102983.56;5137649;27;45284;-76
2022/01/28 01:38:06;;;;;;;;;65.00;51.00;;;;;8.16;87.22;102996.78;5137449;27;45388;-76
2022/01/28 01:40:39;;;;;;;;;57.50;44.25;;;;;8.12;87.11;102981.53;5137356;27;46004;-77
2022/01/28 01:43:18;;;;;;;;;64.50;52.50;;;;;7.94;87.67;102968.03;5137231;27;45505;-77
2022/01/28 01:46:01;;;;;;;;;62.25;47.50;;;;;8.05;87.35;102988.16;5136893;27;45413;-78
2022/01/28 01:53:58;;;;;;;;;66.00;50.75;;;;;7.84;88.85;102995.59;5137244;27;45372;-77
2022/01/28 01:56:24;;;;;;;;;67.25;52.25;;;;;7.86;88.70;103000.97;5118686;27;45294;-76
2022/01/28 01:58:50;;;;;;;;;67.75;52.00;;;;;7.73;88.74;102983.41;5137061;27;45453;-77
2022/01/28 02:01:16;;;;;;;;;57.25;45.75;;;;;7.75;89.88;103016.13;5136496;27;45968;-77
2022/01/28 02:03:42;;;;;;;;;63.00;47.67;;;;;7.66;90.19;103007.59;5137130;27;45309;-77
2022/01/28 02:06:07;;;;;;;;;68.25;52.00;;;;;7.71;89.87;102996.50;5137223;27;45294;-77
2022/01/28 02:08:34;;;;;;;;;61.00;48.00;;;;;7.87;89.42;103024.88;5137347;27;45256;-77
2022/01/28 02:11:00;;;;;;;;;65.67;52.00;;;;;7.89;88.49;103001.22;5136920;27;46700;-77
2022/01/28 02:13:27;;;;;;;;;59.00;47.33;;;;;7.98;88.24;103009.72;5136811;27;45357;-77
2022/01/28 02:15:54;;;;;;;;;64.67;48.67;;;;;8.09;88.28;103021.00;5136736;27;45387;-77
2022/01/28 02:18:20;;;;;;;;;56.33;45.00;;;;;8.06;87.83;103020.81;5136896;27;45335;-77
2022/01/28 02:20:49;;;;;;;;;61.67;49.67;;;;;7.98;88.13;103012.38;5136941;27;45551;-77
2022/01/28 02:23:15;;;;;;;;;65.00;51.00;;;;;8.00;88.84;103026.63;5136583;27;45367;-77
2022/01/28 02:25:41;;;;;;;;;68.67;50.33;;;;;8.03;89.05;103031.16;5137379;27;45280;-77
2022/01/28 02:28:08;;;;;;;;;63.33;50.67;;;;;8.01;88.30;103006.38;5140081;27;45625;-77
2022/01/28 02:30:34;;;;;;;;;55.33;45.67;;;;;8.12;88.21;103030.88;5121393;27;47295;-77
2022/01/28 02:33:11;;;;;;;;;62.67;49.00;;;;;8.05;88.22;103014.59;5140061;27;45335;-77
2022/01/28 02:35:38;;;;;;;;;60.33;49.33;;;;;8.19;88.18;103019.88;5140653;27;45316;-77
2022/01/28 02:38:03;;;;;;;;;60.33;48.33;;;;;8.13;87.70;103000.97;5121544;27;45373;-77
2022/01/28 02:40:29;;;;;;;;;60.67;48.67;;;;;8.35;87.09;103035.91;5139941;27;45271;-77
2022/01/28 02:43:14;;;;;;;;;63.00;47.00;;;;;8.35;86.88;103041.19;5139907;27;45335;-77
2022/01/28 02:45:41;;;;;;;;;51.00;43.33;;;;;7.88;86.92;102963.28;5129179;27;45354;-77
2022/01/28 02:48:14;;;;;;;;;62.00;48.33;;;;;8.07;87.60;103012.06;5100975;27;45417;-77
2022/01/28 02:50:47;;;;;;;;;55.67;44.00;;;;;8.10;88.33;103038.72;5119230;27;45373;-77
2022/01/28 02:53:21;;;;;;;;;57.33;46.33;;;;;8.07;88.64;103041.13;5119046;27;45590;-78
2022/01/28 02:55:47;;;;;;;;;61.00;47.33;;;;;8.10;88.15;103032.50;5119219;27;45511;-77
2022/01/28 02:58:21;;;;;;;;;56.33;46.33;;;;;8.12;88.50;103045.00;5118518;27;45408;-77
2022/01/28 03:00:47;;;;;;;;;63.33;50.00;;;;;7.92;88.62;103013.69;5118972;27;46346;-77
2022/01/28 03:03:14;;;;;;;;;64.33;48.33;;;;;7.94;89.09;103020.91;5118601;27;45238;-77
2022/01/28 03:05:41;;;;;;;;;62.67;48.33;;;;;7.88;88.29;103009.94;5100674;27;45243;-77
2022/01/28 03:08:06;;;;;;;;;58.00;46.00;;;;;8.02;88.52;103029.34;5117435;27;45446;-77
2022/01/28 03:13:31;;;;;;;;;62.33;46.67;;;;;8.00;88.45;103016.03;5118676;27;45376;-77
2022/01/28 03:15:52;;;;;;;;;42.00;30.33;;;;;7.80;88.85;102995.31;5117430;27;45596;-77
2022/01/28 03:18:22;;;;;;;;;61.25;45.75;;;;;8.04;89.00;103033.00;5100280;27;45448;-77
2022/01/28 03:23:19;;;;;;;;;67.00;49.50;;;;;7.86;89.36;103007.19;5130823;27;45355;-77
2022/01/28 03:25:46;;;;;;;;;58.00;43.00;;;;;7.85;89.46;103009.75;5139119;27;45359;-77
2022/01/28 03:28:14;;;;;;;;;54.33;44.00;;;;;7.76;89.77;103009.13;5139378;27;45511;-78
2022/01/28 03:30:39;;;;;;;;;59.33;47.67;;;;;7.70;90.34;102994.66;5139235;27;46499;-77
2022/01/28 03:33:05;;;;;;;;;56.00;44.67;;;;;7.99;89.32;103027.41;5139132;27;45421;-77
2022/01/28 03:35:32;;;;;;;;;58.50;46.50;;;;;7.85;89.18;102981.56;5120854;27;45394;-77
2022/01/28 03:38:01;;;;;;;;;60.67;47.00;;;;;8.18;88.46;103040.09;5139075;27;45391;-77
2022/01/28 03:40:33;;;;;;;;;55.67;46.33;;;;;8.15;87.94;103025.78;5138481;27;45227;-77
2022/01/28 03:42:58;;;;;;;;;55.33;43.33;;;;;7.96;88.77;102999.84;5139055;27;45559;-77
2022/01/28 03:45:23;;;;;;;;;62.00;48.67;;;;;8.02;89.10;103024.97;5139107;27;45377;-77
2022/01/28 03:47:49;;;;;;;;;60.00;46.33;;;;;7.89;89.04;102999.47;5139288;27;45317;-77
2022/01/28 03:50:14;;;;;;;;;58.67;46.67;;;;;8.08;88.42;103021.81;5138834;27;46131;-77
2022/01/28 03:52:39;;;;;;;;;61.67;46.00;;;;;8.00;88.30;103004.53;5138976;27;45342;-77
2022/01/28 03:55:05;;;;;;;;;57.67;46.00;;;;;7.88;88.42;103000.28;5120098;27;45430;-77
2022/01/28 03:57:31;;;;;;;;;63.50;48.00;;;;;8.10;88.88;103053.63;5139039;27;45300;-77
2022/01/28 03:59:56;;;;;;;;;73.00;53.25;;;;;7.89;89.58;103032.94;5138727;27;46061;-77
2022/01/28 04:02:26;;;;;;;;;63.25;51.50;;;;;7.87;89.95;103048.66;5138597;27;45410;-77
2022/01/28 04:12:55;;;;;;;;;60.25;47.00;;;;;7.81;89.69;103040.31;5054005;28;45372;-77
2022/01/28 04:18:04;;;;;;;;;57.33;46.33;;;;;7.86;90.06;103065.34;5054312;28;45280;-77
2022/01/28 04:20:30;;;;;;;;;64.33;50.00;;;;;7.93;90.19;103069.28;5053717;28;45331;-77
2022/01/28 04:22:57;;;;;;;;;58.33;45.00;;;;;7.85;90.36;103052.94;5053741;28;45282;-78
2022/01/28 04:25:22;;;;;;;;;63.00;46.67;;;;;7.84;89.49;103048.44;5053866;28;45578;-77
2022/01/28 04:27:48;;;;;;;;;67.25;53.00;;;;;7.89;89.66;103054.06;5037048;28;45465;-77
2022/01/28 04:30:13;;;;;;;;;67.67;51.33;;;;;7.98;89.04;103061.69;5053870;28;45441;-77
2022/01/28 04:32:39;;;;;;;;;69.00;52.50;;;;;7.75;89.76;103039.91;5054237;28;45897;-77
2022/01/28 04:35:06;;;;;;;;;64.33;51.33;;;;;7.75;90.32;103049.56;5037407;28;45756;-77
2022/01/28 04:40:10;;;;;;;;;69.75;53.00;;;;;7.41;90.64;102992.72;5053557;28;45421;-77
2022/01/28 04:45:19;;;;;;;;;61.33;49.67;;;;;7.76;90.99;103076.09;5053669;28;45455;-77
2022/01/28 04:55:56;;;;;;;;;67.75;51.75;;;;;7.59;90.34;103079.31;5117290;27;45460;-78
2022/01/28 04:58:16;;;;;;;;;67.75;51.50;;;;;7.42;90.63;103051.75;5112842;27;45425;-77
2022/01/28 05:00:54;;;;;;;;;61.00;51.00;;;;;7.66;90.69;103084.19;5137595;27;45618;-77
2022/01/28 05:03:37;;;;;;;;;65.33;50.67;;;;;7.36;89.89;103046.97;5119004;27;46017;-77
2022/01/28 05:12:40;;;;;;;;;62.33;47.33;;;;;7.53;89.13;103079.81;5053189;28;45984;-77
2022/01/28 05:27:46;;;;;;;;;60.33;46.00;;;;;7.24;87.50;103110.38;5053175;28;45461;-77
2022/01/28 05:30:12;;;;;;;;;57.50;45.00;;;;;7.21;87.37;103126.00;5053453;28;45524;-77
2022/01/28 05:32:37;;;;;;;;;57.75;48.50;;;;;7.05;87.39;103129.28;5036229;28;46146;-78
2022/01/28 05:35:03;;;;;;;;;57.33;44.67;;;;;6.86;88.48;103125.31;5053289;28;45264;-77
2022/01/28 05:37:29;;;;;;;;;64.33;49.67;;;;;6.77;87.97;103100.91;5053024;28;45252;-77
2022/01/28 05:39:54;;;;;;;;;57.33;48.00;;;;;6.93;87.99;103138.94;5052868;28;45553;-77
2022/01/28 05:42:19;;;;;;;;;57.67;44.00;;;;;6.72;88.00;103094.38;5035926;28;46133;-78
2022/01/28 05:44:45;;;;;;;;;64.33;49.67;;;;;6.86;88.13;103127.97;5036317;28;45563;-77
2022/01/28 05:47:14;;;;;;;;;57.33;46.67;;;;;6.81;88.17;103116.16;5063068;27;45506;-77
2022/01/28 05:49:41;;;;;;;;;54.00;44.00;;;;;7.05;87.62;103150.41;5115098;27;45382;-77
2022/01/28 05:52:07;;;;;;;;;64.25;47.75;;;;;6.94;87.75;103141.69;5115961;27;45377;-78
2022/01/28 05:54:32;;;;;;;;;56.33;44.00;;;;;6.79;87.62;103135.31;5097965;27;46051;-77
2022/01/28 05:56:58;;;;;;;;;64.00;50.00;;;;;6.79;87.68;103165.28;5116668;27;45222;-77
2022/01/28 05:59:23;;;;;;;;;63.75;49.50;;;;;6.60;88.09;103138.34;5114931;27;45295;-77
2022/01/28 06:01:48;;;;;;;;;59.67;47.00;;;;;6.66;88.38;103151.97;5117599;27;45336;-77
2022/01/28 06:04:15;;;;;;;;;63.50;49.25;;;;;6.47;88.31;103129.50;5119788;27;45301;-77
2022/01/28 06:06:41;;;;;;;;;64.25;50.00;;;;;6.49;88.38;103159.53;5118278;27;45321;-76
2022/01/28 06:09:06;;;;;;;;;55.00;45.67;;;;;6.61;88.57;103185.00;5119898;27;45524;-77
2022/01/28 06:11:31;;;;;;;;;56.33;43.67;;;;;6.33;88.71;103120.56;5119862;27;45446;-77
2022/01/28 06:13:57;;;;;;;;;58.67;44.67;;;;;6.55;88.48;103158.16;5119923;27;45368;-77
2022/01/28 06:16:22;;;;;;;;;55.33;41.00;;;;;6.62;88.28;103164.00;5119751;27;45621;-76
2022/01/28 06:18:47;;;;;;;;;61.33;49.67;;;;;6.70;88.70;103172.50;5119984;27;45357;-76
2022/01/28 06:21:13;;;;;;;;;62.75;47.75;;;;;6.71;87.60;103171.69;5119331;27;45369;-76
2022/01/28 06:23:39;;;;;;;;;51.00;41.00;;;;;6.60;87.96;103152.44;5130866;27;46015;-76
2022/01/28 06:26:05;;;;;;;;;59.00;46.00;;;;;6.81;87.67;103178.56;5140571;27;45364;-76
2022/01/28 06:28:31;;;;;;;;;56.67;43.67;;;;;6.83;87.82;103172.56;5121815;27;45298;-77
2022/01/28 06:30:56;;;;;;;;;55.67;45.67;;;;;6.84;87.34;103173.50;5121335;27;46963;-77
2022/01/28 06:33:22;;;;;;;;;39.67;36.67;;;;;6.84;87.16;103181.44;5140268;27;45404;-77
2022/01/28 06:35:47;;;;;;;;;60.33;46.33;;;;;6.67;87.10;103144.16;5140020;27;45386;-77
2022/01/28 06:38:14;;;;;;;;;48.00;39.33;;;;;6.87;87.25;103174.63;5121532;27;45587;-76
2022/01/28 06:40:39;;;;;;;;;54.33;44.00;;;;;6.84;87.08;103155.94;5139750;27;46282;-77
2022/01/28 06:43:09;;;;;;;;;56.67;44.00;;;;;7.03;86.83;103163.50;5139841;27;45404;-77
2022/01/28 06:45:36;;;;;;;;;63.67;44.00;;;;;6.80;86.47;103156.53;5120958;27;45601;-77
2022/01/28 06:48:01;;;;;;;;;51.33;39.00;;;;;6.69;86.79;103160.09;5139791;27;45379;-77
2022/01/28 06:50:27;;;;;;;;;58.00;45.67;;;;;6.63;87.25;103175.50;5120250;27;47192;-77
2022/01/28 06:52:52;;;;;;;;;58.33;45.67;;;;;6.50;88.05;103153.47;5139628;27;45373;-77
2022/01/28 06:55:17;;;;;;;;;40.00;38.33;;;;;6.63;88.07;103186.03;5121387;27;45490;-77
2022/01/28 06:57:43;;;;;;;;;62.25;50.75;;;;;6.41;88.13;103162.41;5120809;27;45615;-77
2022/01/28 07:00:11;;;;;;;;;56.00;42.00;;;;;6.35;88.60;103163.78;5120838;27;47002;-77
2022/01/28 07:02:37;;;;;;;;;61.25;44.25;;;;;6.45;88.69;103196.13;5139023;27;45259;-77
2022/01/28 07:05:03;;;;;;;;;49.00;41.00;;;;;6.34;88.58;103172.53;5139291;27;45336;-77
2022/01/28 07:07:28;;;;;;;;;53.33;43.67;;;;;6.29;88.29;103147.50;5139606;27;45381;-77
2022/01/28 07:09:54;;;;;;;;;58.33;43.33;;;;;6.24;88.56;103134.78;5139260;27;45381;-77
2022/01/28 07:12:20;;;;;;;;;59.33;44.00;;;;;6.53;88.54;103180.06;5138858;27;45436;-77
2022/01/28 07:14:47;;;;;;;;;51.50;42.00;;;;;6.55;88.39;103181.91;5120548;27;45613;-77
2022/01/28 07:17:12;;;;;;;;;58.33;46.67;;;;;6.47;88.79;103187.53;5139221;27;45445;-77
2022/01/28 07:19:38;;;;;;;;;61.67;48.00;;;;;6.45;88.52;103172.41;5138569;27;46017;-77
2022/01/28 07:22:04;;;;;;;;;57.33;45.33;;;;;6.43;88.33;103164.38;5139023;27;45341;-77
2022/01/28 07:24:29;;;;;;;;;62.33;48.67;;;;;6.59;88.14;103184.88;5120000;27;45421;-77
2022/01/28 07:26:55;;;;;;;;;41.33;32.67;;;;;6.60;87.82;103181.44;5117998;27;45408;-77
2022/01/28 07:29:22;;;;;;;;;55.33;44.00;;;;;6.68;87.36;103184.63;5118035;27;45477;-77
2022/01/28 07:31:48;;;;;;;;;52.67;39.00;;;;;6.70;87.25;103201.50;5117810;27;45339;-77
2022/01/28 07:34:14;;;;;;;;;55.33;41.33;;;;;6.76;87.62;103223.06;5117664;27;45425;-77
2022/01/28 07:36:40;;;;;;;;;57.33;45.33;;;;;6.60;87.90;103197.28;5117960;27;45326;-77
2022/01/28 07:39:06;;;;;;;;;52.67;41.67;;;;;6.70;87.65;103217.34;5118072;27;46230;-76
2022/01/28 07:41:36;;;;;;;;;55.33;45.67;;;;;6.72;87.75;103221.00;5117990;27;45444;-77
2022/01/28 07:44:01;;;;;;;;;60.00;47.33;;;;;6.73;87.87;103219.28;5118010;27;45255;-77
2022/01/28 07:46:27;;;;;;;;;59.00;45.67;;;;;6.43;87.29;103155.56;5117559;27;45568;-77
2022/01/28 07:48:52;;;;;;;;;62.33;46.33;;;;;6.77;87.25;103229.28;5099243;27;47872;-77
2022/01/28 07:51:17;;;;;;;;;59.67;46.00;;;;;6.84;87.54;103243.03;5099322;27;45792;-77
2022/01/28 07:53:43;;;;;;;;;56.33;44.67;;;;;6.86;87.68;103243.13;5117777;27;45347;-77
2022/01/28 07:56:08;;;;;;;;;61.00;44.33;;;;;6.82;87.54;103235.78;5099483;27;45365;-77
2022/01/28 07:58:34;;;;;;;;;60.00;45.00;;;;;6.75;87.46;103215.03;5118324;27;45979;-77
2022/01/28 08:00:59;;;;;;;;;56.67;44.00;;;;;6.87;88.07;103252.91;5119353;27;45832;-77
2022/01/28 08:03:24;;;;;;;;;46.00;33.00;;;;;6.77;87.76;103235.47;5138577;27;45455;-77
2022/01/28 08:05:50;;;;;;;;;58.67;47.67;;;;;6.68;87.79;103218.94;5138430;27;45717;-77
2022/01/28 08:08:19;;;;;;;;;44.33;40.00;;;;;6.70;88.06;103238.44;5138525;27;45668;-77
2022/01/28 08:10:44;;;;;;;;;55.33;42.33;;;;;6.83;88.36;103267.56;5138297;27;45287;-77
2022/01/28 08:13:09;;;;;;;;;48.67;39.00;;;;;6.85;88.09;103252.78;5138709;27;45304;-77
2022/01/28 08:15:35;;;;;;;;;54.33;44.00;;;;;6.89;88.29;103247.72;5138113;27;45650;-77
2022/01/28 08:18:02;;;;;;;;;60.00;45.00;;;;;6.48;87.56;103170.91;5138479;27;45468;-81
2022/01/28 08:20:27;;;;;;;;;50.67;36.67;;;;;7.10;87.41;103266.88;5138637;27;45314;-78
2022/01/28 08:22:56;;;;;;;;;57.00;47.33;;;;;6.87;87.26;103219.50;5119500;27;45960;-77
2022/01/28 08:25:23;;;;;;;;;56.00;46.00;;;;;7.21;87.23;103268.56;5119036;27;45366;-78
2022/01/28 08:27:49;;;;;;;;;55.00;41.00;;;;;7.24;86.65;103265.25;5137852;27;45493;-78
2022/01/28 08:30:18;;;;;;;;;59.67;44.67;;;;;7.19;87.11;103279.03;5119399;27;45369;-77
2022/01/28 08:32:45;;;;;;;;;52.00;41.33;;;;;6.98;86.55;103245.78;5138504;27;45558;-79
2022/01/28 08:35:12;;;;;;;;;61.00;47.33;;;;;7.19;87.00;103281.66;5138180;27;45506;-79
2022/01/28 08:37:37;;;;;;;;;52.33;41.00;;;;;6.84;86.90;103216.63;5138009;27;45771;-85
2022/01/28 08:40:05;;;;;;;;;41.67;39.33;;;;;7.20;86.80;103275.59;5119548;27;45567;-79
2022/01/28 08:42:31;;;;;;;;;43.67;37.33;;;;;6.91;86.92;103227.66;5138319;27;45289;-79
2022/01/28 08:44:56;;;;;;;;;45.67;39.33;;;;;7.17;86.36;103269.16;5137679;27;45216;-80
2022/01/28 08:47:22;;;;;;;;;49.33;40.00;;;;;7.11;85.86;103250.22;5119048;27;46230;-79
2022/01/28 08:49:47;;;;;;;;;52.00;40.33;;;;;7.16;86.09;103248.88;5137665;27;45318;-80
2022/01/28 08:52:13;;;;;;;;;51.00;42.00;;;;;7.61;85.76;103297.91;5137971;27;45734;-80
2022/01/28 08:54:39;;;;;;;;;58.33;44.00;;;;;7.31;85.47;103242.06;5118959;27;45454;-80
2022/01/28 08:57:05;;;;;;;;;44.33;37.00;;;;;7.64;85.41;103316.59;5118990;27;48018;-81
2022/01/28 08:59:30;;;;;;;;;55.67;42.67;;;;;7.35;85.33;103280.16;5118822;27;45676;-80
2022/01/28 09:01:55;;;;;;;;;57.00;43.67;;;;;7.14;85.08;103243.44;5136003;27;45586;-80
2022/01/28 09:04:21;;;;;;;;;56.00;44.67;;;;;7.33;85.03;103282.69;5137919;27;45277;-80
2022/01/28 09:06:46;;;;;;;;;55.33;41.67;;;;;7.55;85.49;103303.66;5137226;27;45471;-80
2022/01/28 09:09:12;;;;;;;;;49.00;38.00;;;;;7.42;85.19;103274.50;5137188;27;45383;-80
2022/01/28 09:12:05;;;;;;;;;55.00;42.33;;;;;7.63;85.17;103329.72;5118613;27;45671;-80
2022/01/28 09:14:30;;;;;;;;;51.67;41.67;;;;;7.30;84.91;103218.16;5137201;27;45515;-80
2022/01/28 09:16:56;;;;;;;;;52.67;41.67;;;;;7.87;84.81;103318.25;5137147;27;46352;-80
2022/01/28 09:19:22;;;;;;;;;52.33;39.67;;;;;7.90;84.10;103346.63;5137389;27;45393;-80
2022/01/28 09:21:47;;;;;;;;;54.67;43.33;;;;;7.38;84.91;103238.09;5119019;27;45416;-80
2022/01/28 09:24:13;;;;;;;;;57.33;42.00;;;;;7.46;84.65;103252.78;5137828;27;45336;-80
2022/01/28 09:26:38;;;;;;;;;51.00;41.33;;;;;7.95;84.24;103336.41;5119050;27;46345;-81
2022/01/28 09:29:04;;;;;;;;;48.00;40.33;;;;;7.46;84.04;103239.59;5137429;27;45274;-80
2022/01/28 09:31:29;;;;;;;;;57.00;39.67;;;;;7.79;83.83;103290.38;5119221;27;45424;-80
2022/01/28 09:33:55;;;;;;;;;59.67;48.33;;;;;7.30;83.72;103199.66;5137625;27;45511;-80
2022/01/28 09:36:20;;;;;;;;;58.33;47.00;;;;;7.95;84.14;103313.53;5140104;27;45453;-80
2022/01/28 09:38:46;;;;;;;;;50.00;41.67;;;;;7.48;83.68;103235.34;5122119;27;45476;-80
2022/01/28 09:41:14;;;;;;;;;60.00;47.00;;;;;7.64;83.50;103261.13;5122705;27;45512;-80
2022/01/28 09:43:43;;;;;;;;;56.33;42.00;;;;;8.00;83.80;103297.97;5140663;27;45454;-80
2022/01/28 09:46:08;;;;;;;;;54.67;43.00;;;;;7.99;83.79;103310.28;5140921;27;46521;-80
2022/01/28 09:48:34;;;;;;;;;55.67;44.00;;;;;7.71;83.72;103268.66;5140766;27;45459;-80
2022/01/28 09:51:01;;;;;;;;;56.33;42.67;;;;;7.89;84.39;103276.09;5122406;27;45216;-80
2022/01/28 09:53:27;;;;;;;;;56.33;44.00;;;;;8.34;83.67;103324.13;5122320;27;45758;-80
2022/01/28 09:55:53;;;;;;;;;57.00;43.00;;;;;8.13;83.20;103274.25;5140819;27;46100;-80
2022/01/28 09:58:18;;;;;;;;;63.67;49.67;;;;;7.90;83.07;103203.88;5140826;27;45384;-80
2022/01/28 10:00:44;;;;;;;;;59.00;46.00;;;;;7.78;82.00;103188.13;5121983;27;45447;-81
2022/01/28 10:03:12;;;;;;;;;55.67;43.67;;;;;8.31;82.60;103286.88;5141029;27;45520;-80
2022/01/28 10:05:41;;;;;;;;;48.67;40.00;;;;;8.32;82.62;103278.16;5140373;27;45323;-80
2022/01/28 10:08:14;;;;;;;;;62.00;45.00;;;;;8.44;81.35;103279.00;5122025;27;45329;-80
2022/01/28 10:10:45;;;;;;;;;59.00;46.00;;;;;8.49;81.15;103289.91;5122076;27;45554;-80
2022/01/28 10:13:15;;;;;;;;;59.67;43.33;;;;;8.50;81.76;103289.13;5140126;27;45475;-80
2022/01/28 10:15:57;;;;;;;;;59.33;47.00;;;;;8.78;81.15;103336.91;5121942;27;48131;-80
2022/01/28 10:18:42;;;;;;;;;43.33;36.33;;;;;8.38;81.81;103283.84;5121953;27;46048;-80
2022/01/28 10:21:29;;;;;;;;;59.67;47.00;;;;;8.80;81.05;103352.88;5140674;27;45463;-80
2022/01/28 10:23:55;;;;;;;;;54.00;42.67;;;;;8.81;81.55;103350.34;5120209;27;45436;-80
2022/01/28 10:26:39;;;;;;;;;59.67;48.00;;;;;8.87;81.05;103341.88;5119053;27;46317;-80
2022/01/28 10:29:08;;;;;;;;;53.00;44.67;;;;;8.45;80.61;103256.13;5119599;27;45262;-80
2022/01/28 10:31:52;;;;;;;;;60.00;46.67;;;;;8.73;80.64;103319.78;5119741;27;45356;-80
2022/01/28 10:34:23;;;;;;;;;55.33;44.00;;;;;8.79;80.79;103344.03;5119485;27;45245;-80
2022/01/28 10:36:51;;;;;;;;;47.67;38.33;;;;;8.64;80.42;103327.09;5119072;27;46016;-80
2022/01/28 10:39:20;;;;;;;;;59.67;46.67;;;;;8.82;80.98;103346.88;5118006;27;45424;-80
2022/01/28 10:41:56;;;;;;;;;62.67;48.33;;;;;8.72;80.79;103307.34;5100089;27;45460;-80
2022/01/28 10:44:24;;;;;;;;;59.33;46.33;;;;;8.52;80.75;103250.44;5100430;27;45454;-80
2022/01/28 10:46:53;;;;;;;;;60.67;48.00;;;;;8.82;80.33;103323.06;5099620;27;48465;-80
2022/01/28 10:49:19;;;;;;;;;62.00;48.33;;;;;8.68;80.06;103310.63;5119071;27;45398;-80
2022/01/28 10:51:49;;;;;;;;;56.33;46.00;;;;;8.89;80.09;103357.06;5119114;27;45352;-80
2022/01/28 10:54:18;;;;;;;;;58.00;48.00;;;;;8.96;80.28;103361.06;5118988;27;45371;-80
2022/01/28 10:56:58;;;;;;;;;58.67;42.67;;;;;8.64;80.27;103293.59;5100216;27;47136;-80
2022/01/28 10:59:31;;;;;;;;;60.33;46.33;;;;;9.00;79.60;103333.03;5100103;27;45682;-80
2022/01/28 11:01:57;;;;;;;;;54.67;41.67;;;;;8.49;79.98;103237.00;5100116;27;45572;-80
2022/01/28 11:04:24;;;;;;;;;62.00;49.33;;;;;8.92;78.77;103316.66;5100151;27;45470;-80
2022/01/28 11:06:52;;;;;;;;;59.00;46.67;;;;;9.20;78.96;103360.88;5118717;27;45516;-80
2022/01/28 11:09:21;;;;;;;;;56.00;42.33;;;;;8.92;78.86;103306.97;5118931;27;45591;-80
2022/01/28 11:11:49;;;;;;;;;63.33;46.00;;;;;9.15;78.50;103363.19;5118221;27;45989;-80
2022/01/28 11:14:14;;;;;;;;;56.00;45.67;;;;;8.78;78.23;103310.44;5118624;27;45337;-80
2022/01/28 11:16:40;;;;;;;;;55.00;42.33;;;;;8.63;77.60;103273.25;5099953;27;48249;-80
2022/01/28 11:19:09;;;;;;;;;43.33;36.00;;;;;8.75;78.10;103312.88;5100064;27;45724;-80
2022/01/28 11:21:52;;;;;;;;;52.00;40.00;;;;;8.44;78.18;103268.41;5118573;27;45324;-80
2022/01/28 11:24:29;;;;;;;;;34.33;31.67;;;;;8.87;75.89;103350.72;5122752;27;45495;-80
2022/01/28 11:27:03;;;;;;;;;40.33;36.00;;;;;8.71;74.84;103321.41;5139044;27;46633;-80
2022/01/28 11:29:29;;;;;;;;;34.00;30.00;;;;;8.55;75.55;103335.31;5139198;27;45408;-80
2022/01/28 11:32:08;;;;;;;;;34.33;29.67;;;;;8.63;76.11;103333.19;5120705;27;45483;-80
2022/01/28 11:34:34;;;;;;;;;31.00;30.67;;;;;8.57;75.79;103302.84;5120475;27;45570;-80
2022/01/28 11:37:02;;;;;;;;;34.33;28.33;;;;;8.75;75.29;103340.25;5138313;27;45438;-80
2022/01/28 11:39:30;;;;;;;;;30.67;24.67;;;;;8.79;75.05;103338.75;5119845;27;45281;-80
2022/01/28 11:42:03;;;;;;;;;16.00;14.33;;;;;8.81;73.59;103338.84;5120302;27;45422;-80
2022/01/28 11:44:50;;;;;;;;;31.67;24.00;;;;;8.95;73.57;103326.53;5138779;27;45451;-80
2022/01/28 11:47:32;;;;;;;;;31.33;22.67;;;;;9.00;73.22;103323.38;5138646;27;46559;-80
2022/01/28 11:49:59;;;;;;;;;25.67;22.67;;;;;8.92;73.26;103314.91;5138391;27;45474;-80
2022/01/28 11:52:33;;;;;;;;;32.00;26.00;;;;;8.98;73.83;103330.28;5138532;27;45670;-80
2022/01/28 11:55:17;;;;;;;;;25.00;20.67;;;;;9.02;74.56;103321.75;5138356;27;45354;-80
2022/01/28 11:58:19;;;;;;;;;27.00;26.00;;;;;9.00;74.33;103319.78;5119505;27;48020;-80
2022/01/28 12:00:47;;;;;;;;;28.67;26.67;;;;;8.55;74.70;103258.56;5137960;27;45302;-81
2022/01/28 12:03:30;;;;;;;;;31.50;29.00;;;;;8.92;75.10;103304.31;5120023;27;45392;-81
2022/01/28 12:05:57;;;;;;;;;34.00;29.67;;;;;8.64;75.20;103253.00;5138368;27;45227;-79
2022/01/28 12:08:27;;;;;;;;;28.67;26.00;;;;;8.71;74.95;103276.44;5137865;27;45349;-80
2022/01/28 12:10:54;;;;;;;;;28.67;24.33;;;;;8.43;75.74;103234.81;5119782;27;45412;-80
2022/01/28 12:13:46;;;;;;;;;35.00;29.00;;;;;8.64;75.94;103258.31;5138425;27;45288;-82
2022/01/28 12:16:24;;;;;;;;;28.33;25.00;;;;;8.37;74.35;103229.13;5137899;27;45508;-79
2022/01/28 12:18:55;;;;;;;;;30.00;25.67;;;;;8.74;75.22;103280.16;5119338;27;48657;-80
2022/01/28 12:22:09;;;;;;;;;29.67;27.00;;;;;7.85;74.57;103142.78;5119677;27;45462;-81
2022/01/28 12:24:37;;;;;;;;;35.67;31.67;;;;;8.56;75.03;103248.13;5113255;27;45386;-81
2022/01/28 12:27:07;;;;;;;;;34.67;25.67;;;;;8.85;74.57;103280.00;5117299;27;45390;-81
2022/01/28 12:29:35;;;;;;;;;30.33;24.67;;;;;8.30;74.48;103196.06;5098729;27;48458;-81
2022/01/28 12:32:02;;;;;;;;;27.33;21.00;;;;;8.28;74.22;103188.81;5098848;27;46366;-82
2022/01/28 12:34:28;;;;;;;;;24.67;19.67;;;;;8.35;73.84;103202.56;5099203;27;45413;-81
2022/01/28 12:36:57;;;;;;;;;32.67;29.33;;;;;7.83;73.58;103111.78;5116917;27;45310;-81
2022/01/28 12:39:32;;;;;;;;;20.67;18.33;;;;;8.19;73.40;103168.88;5098588;27;46724;-81
2022/01/28 12:42:15;;;;;;;;;22.33;21.67;;;;;8.15;73.26;103137.75;5115582;27;45413;-81